sensor_id;sensor_type;location;lat;lon;timestamp;P1;durP1;ratioP1;P2;durP2;ratioP2
77598;SDS011;66758;52.078;5.070;2023-03-12T00:00:37;8.83;;;4.40;;
77598;SDS011;66758;52.078;5.070;2023-03-12T00:03:06;7.43;;;4.38;;
77598;SDS011;66758;52.078;5.070;2023-03-12T00:05:35;8.45;;;4.50;;
77598;SDS011;66758;52.078;5.070;2023-03-12T00:08:01;9.90;;;4.85;;
77598;SDS011;66758;52.078;5.070;2023-03-12T00:10:28;7.87;;;4.20;;
77598;SDS011;66758;52.078;5.070;2023-03-12T00:12:54;9.90;;;5.07;;
77598;SDS011;66758;52.078;5.070;2023-03-12T00:15:21;6.85;;;4.07;;
77598;SDS011;66758;52.078;5.070;2023-03-12T00:17:47;9.35;;;4.05;;
77598;SDS011;66758;52.078;5.070;2023-03-12T00:20:13;8.10;;;3.80;;
77598;SDS011;66758;52.078;5.070;2023-03-12T00:22:39;8.30;;;4.72;;
77598;SDS011;66758;52.078;5.070;2023-03-12T00:25:09;8.63;;;4.17;;
77598;SDS011;66758;52.078;5.070;2023-03-12T00:27:37;8.55;;;4.25;;
77598;SDS011;66758;52.078;5.070;2023-03-12T00:30:03;9.95;;;4.47;;
77598;SDS011;66758;52.078;5.070;2023-03-12T00:32:31;8.27;;;4.22;;
77598;SDS011;66758;52.078;5.070;2023-03-12T00:34:58;8.07;;;3.90;;
77598;SDS011;66758;52.078;5.070;2023-03-12T00:37:24;7.93;;;4.15;;
77598;SDS011;66758;52.078;5.070;2023-03-12T00:39:50;10.57;;;4.18;;
77598;SDS011;66758;52.078;5.070;2023-03-12T00:42:17;9.35;;;4.03;;
77598;SDS011;66758;52.078;5.070;2023-03-12T00:44:45;11.63;;;4.30;;
77598;SDS011;66758;52.078;5.070;2023-03-12T00:47:11;11.30;;;4.50;;
77598;SDS011;66758;52.078;5.070;2023-03-12T00:49:37;8.02;;;3.88;;
77598;SDS011;66758;52.078;5.070;2023-03-12T00:52:03;8.53;;;4.50;;
77598;SDS011;66758;52.078;5.070;2023-03-12T00:54:30;13.40;;;4.30;;
77598;SDS011;66758;52.078;5.070;2023-03-12T00:56:57;9.55;;;4.20;;
77598;SDS011;66758;52.078;5.070;2023-03-12T00:59:23;12.65;;;4.22;;
77598;SDS011;66758;52.078;5.070;2023-03-12T01:01:48;10.13;;;4.03;;
77598;SDS011;66758;52.078;5.070;2023-03-12T01:04:16;8.30;;;4.15;;
77598;SDS011;66758;52.078;5.070;2023-03-12T01:06:42;7.50;;;4.57;;
77598;SDS011;66758;52.078;5.070;2023-03-12T01:09:07;9.50;;;4.40;;
77598;SDS011;66758;52.078;5.070;2023-03-12T01:11:34;9.20;;;4.33;;
77598;SDS011;66758;52.078;5.070;2023-03-12T01:14:01;9.32;;;4.38;;
77598;SDS011;66758;52.078;5.070;2023-03-12T01:16:28;7.90;;;4.22;;
77598;SDS011;66758;52.078;5.070;2023-03-12T01:18:58;8.25;;;4.32;;
77598;SDS011;66758;52.078;5.070;2023-03-12T01:21:25;8.77;;;4.43;;
77598;SDS011;66758;52.078;5.070;2023-03-12T01:23:51;6.57;;;3.97;;
77598;SDS011;66758;52.078;5.070;2023-03-12T01:26:18;8.40;;;3.92;;
77598;SDS011;66758;52.078;5.070;2023-03-12T01:28:44;9.97;;;4.43;;
77598;SDS011;66758;52.078;5.070;2023-03-12T01:31:11;7.72;;;4.18;;
77598;SDS011;66758;52.078;5.070;2023-03-12T01:33:42;8.98;;;4.75;;
77598;SDS011;66758;52.078;5.070;2023-03-12T01:39:01;11.45;;;4.80;;
77598;SDS011;66758;52.078;5.070;2023-03-12T01:41:27;9.95;;;4.60;;
77598;SDS011;66758;52.078;5.070;2023-03-12T01:43:56;12.70;;;4.43;;
77598;SDS011;66758;52.078;5.070;2023-03-12T01:46:33;7.60;;;4.47;;
77598;SDS011;66758;52.078;5.070;2023-03-12T01:49:13;7.15;;;4.07;;
77598;SDS011;66758;52.078;5.070;2023-03-12T01:54:28;10.15;;;4.53;;
77598;SDS011;66758;52.078;5.070;2023-03-12T01:56:57;11.23;;;4.50;;
77598;SDS011;66758;52.078;5.070;2023-03-12T01:59:27;9.57;;;4.60;;
77598;SDS011;66758;52.078;5.070;2023-03-12T02:01:56;6.70;;;4.40;;
77598;SDS011;66758;52.078;5.070;2023-03-12T02:04:29;10.98;;;4.70;;
77598;SDS011;66758;52.078;5.070;2023-03-12T02:07:17;9.75;;;4.22;;
77598;SDS011;66758;52.078;5.070;2023-03-12T02:09:42;9.97;;;4.43;;
77598;SDS011;66758;52.078;5.070;2023-03-12T02:12:11;6.53;;;4.18;;
77598;SDS011;66758;52.078;5.070;2023-03-12T02:14:37;7.50;;;3.63;;
77598;SDS011;66758;52.078;5.070;2023-03-12T02:17:03;7.38;;;3.75;;
77598;SDS011;66758;52.078;5.070;2023-03-12T02:22:21;7.93;;;4.17;;
77598;SDS011;66758;52.078;5.070;2023-03-12T02:24:56;6.32;;;3.45;;
77598;SDS011;66758;52.078;5.070;2023-03-12T02:27:29;7.35;;;3.95;;
77598;SDS011;66758;52.078;5.070;2023-03-12T02:29:56;9.02;;;4.40;;
77598;SDS011;66758;52.078;5.070;2023-03-12T02:32:23;7.93;;;4.10;;
77598;SDS011;66758;52.078;5.070;2023-03-12T02:34:52;8.23;;;3.70;;
77598;SDS011;66758;52.078;5.070;2023-03-12T02:37:20;7.13;;;3.97;;
77598;SDS011;66758;52.078;5.070;2023-03-12T02:39:48;5.80;;;2.87;;
77598;SDS011;66758;52.078;5.070;2023-03-12T02:42:20;6.70;;;3.30;;
77598;SDS011;66758;52.078;5.070;2023-03-12T02:44:47;7.57;;;3.65;;
77598;SDS011;66758;52.078;5.070;2023-03-12T02:47:13;5.70;;;3.23;;
77598;SDS011;66758;52.078;5.070;2023-03-12T02:49:38;7.80;;;3.53;;
77598;SDS011;66758;52.078;5.070;2023-03-12T02:52:04;5.47;;;3.00;;
77598;SDS011;66758;52.078;5.070;2023-03-12T02:54:30;12.38;;;3.47;;
77598;SDS011;66758;52.078;5.070;2023-03-12T02:56:56;8.10;;;3.93;;
77598;SDS011;66758;52.078;5.070;2023-03-12T02:59:22;9.93;;;3.90;;
77598;SDS011;66758;52.078;5.070;2023-03-12T03:01:51;10.27;;;3.97;;
77598;SDS011;66758;52.078;5.070;2023-03-12T03:04:22;7.45;;;3.70;;
77598;SDS011;66758;52.078;5.070;2023-03-12T03:06:48;6.77;;;3.57;;
77598;SDS011;66758;52.078;5.070;2023-03-12T03:09:14;6.22;;;3.28;;
77598;SDS011;66758;52.078;5.070;2023-03-12T03:11:41;8.18;;;3.47;;
77598;SDS011;66758;52.078;5.070;2023-03-12T03:14:06;8.80;;;4.00;;
77598;SDS011;66758;52.078;5.070;2023-03-12T03:16:33;5.82;;;3.45;;
77598;SDS011;66758;52.078;5.070;2023-03-12T03:18:59;5.53;;;2.97;;
77598;SDS011;66758;52.078;5.070;2023-03-12T03:21:24;10.03;;;3.50;;
77598;SDS011;66758;52.078;5.070;2023-03-12T03:23:50;6.17;;;3.50;;
77598;SDS011;66758;52.078;5.070;2023-03-12T03:26:18;8.68;;;4.25;;
77598;SDS011;66758;52.078;5.070;2023-03-12T03:28:45;7.75;;;4.22;;
77598;SDS011;66758;52.078;5.070;2023-03-12T03:31:11;7.13;;;2.97;;
77598;SDS011;66758;52.078;5.070;2023-03-12T03:33:37;5.88;;;2.58;;
77598;SDS011;66758;52.078;5.070;2023-03-12T03:36:04;9.40;;;3.42;;
77598;SDS011;66758;52.078;5.070;2023-03-12T03:38:31;6.47;;;3.37;;
77598;SDS011;66758;52.078;5.070;2023-03-12T03:40:59;9.13;;;3.03;;
77598;SDS011;66758;52.078;5.070;2023-03-12T03:43:25;9.00;;;3.58;;
77598;SDS011;66758;52.078;5.070;2023-03-12T03:46:01;7.93;;;3.35;;
77598;SDS011;66758;52.078;5.070;2023-03-12T03:48:28;10.43;;;4.37;;
77598;SDS011;66758;52.078;5.070;2023-03-12T03:50:58;6.85;;;2.90;;
77598;SDS011;66758;52.078;5.070;2023-03-12T03:53:25;8.75;;;3.65;;
77598;SDS011;66758;52.078;5.070;2023-03-12T03:55:50;6.77;;;3.00;;
77598;SDS011;66758;52.078;5.070;2023-03-12T03:58:17;5.85;;;3.35;;
77598;SDS011;66758;52.078;5.070;2023-03-12T04:00:43;7.32;;;2.80;;
77598;SDS011;66758;52.078;5.070;2023-03-12T04:03:10;7.43;;;3.63;;
77598;SDS011;66758;52.078;5.070;2023-03-12T04:05:35;4.93;;;2.28;;
77598;SDS011;66758;52.078;5.070;2023-03-12T04:08:01;6.30;;;2.67;;
77598;SDS011;66758;52.078;5.070;2023-03-12T04:10:27;6.78;;;2.47;;
77598;SDS011;66758;52.078;5.070;2023-03-12T04:12:54;8.80;;;3.15;;
77598;SDS011;66758;52.078;5.070;2023-03-12T04:15:20;3.53;;;1.45;;
77598;SDS011;66758;52.078;5.070;2023-03-12T04:17:46;6.83;;;2.30;;
77598;SDS011;66758;52.078;5.070;2023-03-12T04:20:12;4.75;;;2.03;;
77598;SDS011;66758;52.078;5.070;2023-03-12T04:22:38;5.57;;;2.75;;
77598;SDS011;66758;52.078;5.070;2023-03-12T04:25:04;3.90;;;1.83;;
77598;SDS011;66758;52.078;5.070;2023-03-12T04:27:33;7.13;;;3.15;;
77598;SDS011;66758;52.078;5.070;2023-03-12T04:29:59;6.95;;;3.35;;
77598;SDS011;66758;52.078;5.070;2023-03-12T04:32:25;7.30;;;3.03;;
77598;SDS011;66758;52.078;5.070;2023-03-12T04:34:51;5.93;;;2.23;;
77598;SDS011;66758;52.078;5.070;2023-03-12T04:37:16;9.07;;;3.20;;
77598;SDS011;66758;52.078;5.070;2023-03-12T04:39:42;10.83;;;4.10;;
77598;SDS011;66758;52.078;5.070;2023-03-12T04:42:09;9.07;;;3.35;;
77598;SDS011;66758;52.078;5.070;2023-03-12T04:44:35;4.78;;;2.35;;
77598;SDS011;66758;52.078;5.070;2023-03-12T04:47:01;7.50;;;3.80;;
77598;SDS011;66758;52.078;5.070;2023-03-12T04:49:27;5.45;;;3.17;;
77598;SDS011;66758;52.078;5.070;2023-03-12T04:51:53;8.00;;;3.20;;
77598;SDS011;66758;52.078;5.070;2023-03-12T04:54:19;9.33;;;3.67;;
77598;SDS011;66758;52.078;5.070;2023-03-12T04:56:45;9.88;;;3.30;;
77598;SDS011;66758;52.078;5.070;2023-03-12T04:59:11;8.30;;;3.70;;
77598;SDS011;66758;52.078;5.070;2023-03-12T05:01:37;11.80;;;4.60;;
77598;SDS011;66758;52.078;5.070;2023-03-12T05:04:03;7.83;;;3.50;;
77598;SDS011;66758;52.078;5.070;2023-03-12T05:06:30;7.03;;;3.47;;
77598;SDS011;66758;52.078;5.070;2023-03-12T05:08:56;10.13;;;3.95;;
77598;SDS011;66758;52.078;5.070;2023-03-12T05:11:22;8.63;;;4.00;;
77598;SDS011;66758;52.078;5.070;2023-03-12T05:13:47;7.45;;;3.47;;
77598;SDS011;66758;52.078;5.070;2023-03-12T05:16:13;4.50;;;2.33;;
77598;SDS011;66758;52.078;5.070;2023-03-12T05:18:40;8.55;;;3.95;;
77598;SDS011;66758;52.078;5.070;2023-03-12T05:21:08;9.55;;;4.40;;
77598;SDS011;66758;52.078;5.070;2023-03-12T05:23:36;6.88;;;3.25;;
77598;SDS011;66758;52.078;5.070;2023-03-12T05:26:04;9.25;;;4.25;;
77598;SDS011;66758;52.078;5.070;2023-03-12T05:28:31;4.50;;;2.00;;
77598;SDS011;66758;52.078;5.070;2023-03-12T05:30:57;7.53;;;3.80;;
77598;SDS011;66758;52.078;5.070;2023-03-12T05:33:27;10.48;;;3.97;;
77598;SDS011;66758;52.078;5.070;2023-03-12T05:35:53;7.22;;;2.97;;
77598;SDS011;66758;52.078;5.070;2023-03-12T05:38:21;6.57;;;3.93;;
77598;SDS011;66758;52.078;5.070;2023-03-12T05:40:51;6.38;;;3.50;;
77598;SDS011;66758;52.078;5.070;2023-03-12T05:43:18;5.25;;;2.95;;
77598;SDS011;66758;52.078;5.070;2023-03-12T05:45:44;8.52;;;3.97;;
77598;SDS011;66758;52.078;5.070;2023-03-12T05:48:09;8.20;;;3.60;;
77598;SDS011;66758;52.078;5.070;2023-03-12T05:50:35;6.50;;;3.50;;
77598;SDS011;66758;52.078;5.070;2023-03-12T05:53:01;9.60;;;4.50;;
77598;SDS011;66758;52.078;5.070;2023-03-12T05:55:27;7.68;;;3.90;;
77598;SDS011;66758;52.078;5.070;2023-03-12T05:57:53;6.87;;;3.70;;
77598;SDS011;66758;52.078;5.070;2023-03-12T06:00:18;8.05;;;4.30;;
77598;SDS011;66758;52.078;5.070;2023-03-12T06:02:45;8.50;;;4.22;;
77598;SDS011;66758;52.078;5.070;2023-03-12T06:05:10;11.40;;;4.47;;
77598;SDS011;66758;52.078;5.070;2023-03-12T06:07:36;9.65;;;5.20;;
77598;SDS011;66758;52.078;5.070;2023-03-12T06:10:02;11.83;;;6.27;;
77598;SDS011;66758;52.078;5.070;2023-03-12T06:12:28;10.73;;;4.55;;
77598;SDS011;66758;52.078;5.070;2023-03-12T06:14:53;11.60;;;4.93;;
77598;SDS011;66758;52.078;5.070;2023-03-12T06:17:20;12.37;;;6.10;;
77598;SDS011;66758;52.078;5.070;2023-03-12T06:19:47;9.05;;;4.90;;
77598;SDS011;66758;52.078;5.070;2023-03-12T06:22:16;9.85;;;5.07;;
77598;SDS011;66758;52.078;5.070;2023-03-12T06:24:41;9.33;;;4.93;;
77598;SDS011;66758;52.078;5.070;2023-03-12T06:27:11;9.45;;;3.45;;
77598;SDS011;66758;52.078;5.070;2023-03-12T06:29:37;10.93;;;5.38;;
77598;SDS011;66758;52.078;5.070;2023-03-12T06:32:03;8.50;;;4.67;;
77598;SDS011;66758;52.078;5.070;2023-03-12T06:34:29;10.00;;;4.93;;
77598;SDS011;66758;52.078;5.070;2023-03-12T06:36:54;8.20;;;4.67;;
77598;SDS011;66758;52.078;5.070;2023-03-12T06:39:21;11.18;;;6.70;;
77598;SDS011;66758;52.078;5.070;2023-03-12T06:41:47;15.80;;;7.75;;
77598;SDS011;66758;52.078;5.070;2023-03-12T06:44:12;10.07;;;5.70;;
77598;SDS011;66758;52.078;5.070;2023-03-12T06:46:38;11.93;;;6.38;;
77598;SDS011;66758;52.078;5.070;2023-03-12T06:49:05;13.57;;;7.47;;
77598;SDS011;66758;52.078;5.070;2023-03-12T06:51:31;12.23;;;7.20;;
77598;SDS011;66758;52.078;5.070;2023-03-12T06:53:56;8.98;;;6.32;;
77598;SDS011;66758;52.078;5.070;2023-03-12T06:56:22;10.67;;;6.93;;
77598;SDS011;66758;52.078;5.070;2023-03-12T06:58:48;13.67;;;7.27;;
77598;SDS011;66758;52.078;5.070;2023-03-12T07:01:14;20.93;;;8.63;;
77598;SDS011;66758;52.078;5.070;2023-03-12T07:03:40;15.05;;;8.77;;
77598;SDS011;66758;52.078;5.070;2023-03-12T07:06:11;15.17;;;7.27;;
77598;SDS011;66758;52.078;5.070;2023-03-12T07:08:38;18.05;;;8.10;;
77598;SDS011;66758;52.078;5.070;2023-03-12T07:11:04;13.97;;;8.30;;
77598;SDS011;66758;52.078;5.070;2023-03-12T07:13:30;14.50;;;7.35;;
77598;SDS011;66758;52.078;5.070;2023-03-12T07:15:55;20.00;;;9.90;;
77598;SDS011;66758;52.078;5.070;2023-03-12T07:18:21;15.50;;;8.90;;
77598;SDS011;66758;52.078;5.070;2023-03-12T07:20:47;17.70;;;9.60;;
77598;SDS011;66758;52.078;5.070;2023-03-12T07:23:12;21.00;;;9.52;;
77598;SDS011;66758;52.078;5.070;2023-03-12T07:25:39;22.30;;;11.30;;
77598;SDS011;66758;52.078;5.070;2023-03-12T07:28:06;16.20;;;9.15;;
77598;SDS011;66758;52.078;5.070;2023-03-12T07:30:34;19.15;;;11.30;;
77598;SDS011;66758;52.078;5.070;2023-03-12T07:33:00;23.60;;;11.85;;
77598;SDS011;66758;52.078;5.070;2023-03-12T07:35:31;22.73;;;10.95;;
77598;SDS011;66758;52.078;5.070;2023-03-12T07:37:58;20.93;;;11.60;;
77598;SDS011;66758;52.078;5.070;2023-03-12T07:40:24;18.02;;;9.88;;
77598;SDS011;66758;52.078;5.070;2023-03-12T07:42:51;18.02;;;9.50;;
77598;SDS011;66758;52.078;5.070;2023-03-12T07:45:17;17.70;;;10.05;;
77598;SDS011;66758;52.078;5.070;2023-03-12T07:47:46;17.53;;;8.47;;
77598;SDS011;66758;52.078;5.070;2023-03-12T07:50:13;17.25;;;9.18;;
77598;SDS011;66758;52.078;5.070;2023-03-12T07:52:39;23.67;;;9.40;;
77598;SDS011;66758;52.078;5.070;2023-03-12T07:55:05;18.00;;;10.47;;
77598;SDS011;66758;52.078;5.070;2023-03-12T07:57:31;19.70;;;10.65;;
77598;SDS011;66758;52.078;5.070;2023-03-12T07:59:57;12.95;;;8.40;;
77598;SDS011;66758;52.078;5.070;2023-03-12T08:02:23;14.03;;;9.07;;
77598;SDS011;66758;52.078;5.070;2023-03-12T08:04:48;19.17;;;9.73;;
77598;SDS011;66758;52.078;5.070;2023-03-12T08:07:15;14.07;;;8.80;;
77598;SDS011;66758;52.078;5.070;2023-03-12T08:09:41;18.73;;;10.13;;
77598;SDS011;66758;52.078;5.070;2023-03-12T08:12:13;21.05;;;10.50;;
77598;SDS011;66758;52.078;5.070;2023-03-12T08:14:38;20.52;;;9.23;;
77598;SDS011;66758;52.078;5.070;2023-03-12T08:17:04;15.90;;;9.53;;
77598;SDS011;66758;52.078;5.070;2023-03-12T08:19:35;16.13;;;8.70;;
77598;SDS011;66758;52.078;5.070;2023-03-12T08:22:05;17.13;;;9.15;;
77598;SDS011;66758;52.078;5.070;2023-03-12T08:24:31;18.92;;;10.52;;
77598;SDS011;66758;52.078;5.070;2023-03-12T08:26:57;18.20;;;8.97;;
77598;SDS011;66758;52.078;5.070;2023-03-12T08:29:22;18.35;;;10.57;;
77598;SDS011;66758;52.078;5.070;2023-03-12T08:31:50;18.80;;;10.77;;
77598;SDS011;66758;52.078;5.070;2023-03-12T08:34:16;18.35;;;9.95;;
77598;SDS011;66758;52.078;5.070;2023-03-12T08:36:42;18.87;;;10.53;;
77598;SDS011;66758;52.078;5.070;2023-03-12T08:39:08;21.05;;;10.95;;
77598;SDS011;66758;52.078;5.070;2023-03-12T08:41:34;18.88;;;11.02;;
77598;SDS011;66758;52.078;5.070;2023-03-12T08:44:00;20.33;;;10.13;;
77598;SDS011;66758;52.078;5.070;2023-03-12T08:46:25;22.10;;;10.83;;
77598;SDS011;66758;52.078;5.070;2023-03-12T08:48:52;22.52;;;12.30;;
77598;SDS011;66758;52.078;5.070;2023-03-12T08:51:18;22.83;;;11.03;;
77598;SDS011;66758;52.078;5.070;2023-03-12T08:53:43;21.42;;;12.00;;
77598;SDS011;66758;52.078;5.070;2023-03-12T08:56:09;23.17;;;11.73;;
77598;SDS011;66758;52.078;5.070;2023-03-12T08:58:34;23.17;;;11.65;;
77598;SDS011;66758;52.078;5.070;2023-03-12T09:01:01;26.92;;;13.75;;
77598;SDS011;66758;52.078;5.070;2023-03-12T09:03:26;26.33;;;13.40;;
77598;SDS011;66758;52.078;5.070;2023-03-12T09:06:05;30.60;;;14.40;;
77598;SDS011;66758;52.078;5.070;2023-03-12T09:08:40;28.23;;;14.33;;
77598;SDS011;66758;52.078;5.070;2023-03-12T09:11:08;28.65;;;13.48;;
77598;SDS011;66758;52.078;5.070;2023-03-12T09:13:34;32.33;;;14.20;;
77598;SDS011;66758;52.078;5.070;2023-03-12T09:16:00;32.43;;;14.47;;
77598;SDS011;66758;52.078;5.070;2023-03-12T09:18:28;33.27;;;15.63;;
77598;SDS011;66758;52.078;5.070;2023-03-12T09:20:54;27.08;;;13.48;;
77598;SDS011;66758;52.078;5.070;2023-03-12T09:23:23;31.48;;;15.93;;
77598;SDS011;66758;52.078;5.070;2023-03-12T09:25:49;35.25;;;16.63;;
77598;SDS011;66758;52.078;5.070;2023-03-12T09:28:15;34.43;;;16.20;;
77598;SDS011;66758;52.078;5.070;2023-03-12T09:30:42;28.95;;;14.88;;
77598;SDS011;66758;52.078;5.070;2023-03-12T09:33:08;30.27;;;14.77;;
77598;SDS011;66758;52.078;5.070;2023-03-12T09:35:34;34.97;;;16.92;;
77598;SDS011;66758;52.078;5.070;2023-03-12T09:38:00;35.47;;;17.98;;
77598;SDS011;66758;52.078;5.070;2023-03-12T09:40:28;41.10;;;17.37;;
77598;SDS011;66758;52.078;5.070;2023-03-12T09:43:05;37.72;;;17.33;;
77598;SDS011;66758;52.078;5.070;2023-03-12T09:45:40;37.05;;;18.13;;
77598;SDS011;66758;52.078;5.070;2023-03-12T09:48:16;39.13;;;17.02;;
77598;SDS011;66758;52.078;5.070;2023-03-12T09:50:47;35.58;;;17.13;;
77598;SDS011;66758;52.078;5.070;2023-03-12T09:55:47;37.60;;;18.20;;
77598;SDS011;66758;52.078;5.070;2023-03-12T09:58:33;37.67;;;16.88;;
77598;SDS011;66758;52.078;5.070;2023-03-12T10:01:04;34.90;;;17.38;;
77598;SDS011;66758;52.078;5.070;2023-03-12T10:03:53;32.78;;;17.15;;
77598;SDS011;66758;52.078;5.070;2023-03-12T10:18:30;30.73;;;15.20;;
77598;SDS011;66758;52.078;5.070;2023-03-12T10:23:43;34.20;;;14.68;;
77598;SDS011;66758;52.078;5.070;2023-03-12T10:26:40;34.38;;;15.05;;
77598;SDS011;66758;52.078;5.070;2023-03-12T10:29:19;31.45;;;15.07;;
77598;SDS011;66758;52.078;5.070;2023-03-12T10:34:53;28.30;;;13.40;;
77598;SDS011;66758;52.078;5.070;2023-03-12T10:37:56;27.98;;;13.90;;
77598;SDS011;66758;52.078;5.070;2023-03-12T10:40:25;29.48;;;13.80;;
77598;SDS011;66758;52.078;5.070;2023-03-12T10:42:56;28.45;;;13.43;;
77598;SDS011;66758;52.078;5.070;2023-03-12T10:45:24;32.55;;;14.50;;
77598;SDS011;66758;52.078;5.070;2023-03-12T10:48:10;29.93;;;13.47;;
77598;SDS011;66758;52.078;5.070;2023-03-12T10:50:43;28.70;;;12.45;;
77598;SDS011;66758;52.078;5.070;2023-03-12T10:53:29;28.33;;;11.32;;
77598;SDS011;66758;52.078;5.070;2023-03-12T10:56:04;26.10;;;11.15;;
77598;SDS011;66758;52.078;5.070;2023-03-12T10:58:38;23.13;;;9.93;;
77598;SDS011;66758;52.078;5.070;2023-03-12T11:01:14;27.13;;;9.80;;
77598;SDS011;66758;52.078;5.070;2023-03-12T11:03:42;24.80;;;10.50;;
77598;SDS011;66758;52.078;5.070;2023-03-12T11:06:31;26.83;;;9.70;;
77598;SDS011;66758;52.078;5.070;2023-03-12T11:11:31;21.05;;;7.43;;
77598;SDS011;66758;52.078;5.070;2023-03-12T11:14:33;28.90;;;9.60;;
77598;SDS011;66758;52.078;5.070;2023-03-12T11:16:53;27.13;;;8.52;;
77598;SDS011;66758;52.078;5.070;2023-03-12T11:19:31;23.00;;;6.68;;
77598;SDS011;66758;52.078;5.070;2023-03-12T11:22:04;28.90;;;7.90;;
77598;SDS011;66758;52.078;5.070;2023-03-12T11:24:32;31.35;;;7.18;;
77598;SDS011;66758;52.078;5.070;2023-03-12T11:27:04;21.93;;;6.73;;
77598;SDS011;66758;52.078;5.070;2023-03-12T11:29:38;27.63;;;6.57;;
77598;SDS011;66758;52.078;5.070;2023-03-12T11:32:17;29.40;;;6.53;;
77598;SDS011;66758;52.078;5.070;2023-03-12T11:34:46;29.98;;;5.82;;
77598;SDS011;66758;52.078;5.070;2023-03-12T11:48:24;24.17;;;5.82;;
77598;SDS011;66758;52.078;5.070;2023-03-12T11:51:01;26.08;;;6.10;;
77598;SDS011;66758;52.078;5.070;2023-03-12T12:05:57;31.65;;;7.22;;
77598;SDS011;66758;52.078;5.070;2023-03-12T12:33:31;27.65;;;4.85;;
77598;SDS011;66758;52.078;5.070;2023-03-12T12:36:01;25.23;;;4.63;;
77598;SDS011;66758;52.078;5.070;2023-03-12T12:41:23;28.58;;;4.93;;
77598;SDS011;66758;52.078;5.070;2023-03-12T12:43:51;20.00;;;4.40;;
77598;SDS011;66758;52.078;5.070;2023-03-12T12:46:32;17.65;;;3.90;;
77598;SDS011;66758;52.078;5.070;2023-03-12T12:49:02;28.33;;;4.70;;
77598;SDS011;66758;52.078;5.070;2023-03-12T12:51:35;23.10;;;4.20;;
77598;SDS011;66758;52.078;5.070;2023-03-12T12:54:11;26.85;;;4.95;;
77598;SDS011;66758;52.078;5.070;2023-03-12T12:56:47;27.63;;;4.50;;
77598;SDS011;66758;52.078;5.070;2023-03-12T13:02:18;28.30;;;4.90;;
77598;SDS011;66758;52.078;5.070;2023-03-12T13:04:47;20.98;;;4.57;;
77598;SDS011;66758;52.078;5.070;2023-03-12T13:09:45;27.50;;;5.57;;
77598;SDS011;66758;52.078;5.070;2023-03-12T13:12:30;25.10;;;4.63;;
77598;SDS011;66758;52.078;5.070;2023-03-12T13:15:31;23.40;;;4.23;;
77598;SDS011;66758;52.078;5.070;2023-03-12T13:20:21;24.77;;;5.10;;
77598;SDS011;66758;52.078;5.070;2023-03-12T13:25:57;32.97;;;4.30;;
77598;SDS011;66758;52.078;5.070;2023-03-12T13:31:40;26.20;;;4.43;;
77598;SDS011;66758;52.078;5.070;2023-03-12T13:36:45;20.10;;;4.05;;
77598;SDS011;66758;52.078;5.070;2023-03-12T13:41:40;25.13;;;4.00;;
77598;SDS011;66758;52.078;5.070;2023-03-12T13:46:47;27.60;;;4.50;;
77598;SDS011;66758;52.078;5.070;2023-03-12T13:49:22;23.67;;;4.20;;
77598;SDS011;66758;52.078;5.070;2023-03-12T13:51:53;20.40;;;3.47;;
77598;SDS011;66758;52.078;5.070;2023-03-12T13:54:26;22.85;;;3.35;;
77598;SDS011;66758;52.078;5.070;2023-03-12T13:56:56;21.83;;;3.93;;
77598;SDS011;66758;52.078;5.070;2023-03-12T13:59:26;16.00;;;2.40;;
77598;SDS011;66758;52.078;5.070;2023-03-12T14:01:54;22.67;;;3.58;;
77598;SDS011;66758;52.078;5.070;2023-03-12T14:04:32;25.52;;;3.70;;
77598;SDS011;66758;52.078;5.070;2023-03-12T14:10:21;16.87;;;3.30;;
77598;SDS011;66758;52.078;5.070;2023-03-12T14:12:53;18.33;;;2.60;;
77598;SDS011;66758;52.078;5.070;2023-03-12T14:16:04;17.63;;;3.28;;
77598;SDS011;66758;52.078;5.070;2023-03-12T14:18:43;18.88;;;3.78;;
77598;SDS011;66758;52.078;5.070;2023-03-12T14:21:13;18.92;;;3.65;;
77598;SDS011;66758;52.078;5.070;2023-03-12T14:23:53;22.30;;;2.87;;
77598;SDS011;66758;52.078;5.070;2023-03-12T14:26:22;20.40;;;4.45;;
77598;SDS011;66758;52.078;5.070;2023-03-12T14:29:01;17.45;;;3.30;;
77598;SDS011;66758;52.078;5.070;2023-03-12T14:31:33;17.63;;;3.53;;
77598;SDS011;66758;52.078;5.070;2023-03-12T14:34:22;19.52;;;3.38;;
77598;SDS011;66758;52.078;5.070;2023-03-12T14:36:49;18.50;;;3.57;;
77598;SDS011;66758;52.078;5.070;2023-03-12T14:39:33;21.73;;;3.45;;
77598;SDS011;66758;52.078;5.070;2023-03-12T14:42:04;19.35;;;3.97;;
77598;SDS011;66758;52.078;5.070;2023-03-12T14:44:33;25.45;;;3.80;;
77598;SDS011;66758;52.078;5.070;2023-03-12T14:47:02;23.33;;;4.15;;
77598;SDS011;66758;52.078;5.070;2023-03-12T14:49:40;23.23;;;4.10;;
77598;SDS011;66758;52.078;5.070;2023-03-12T14:52:20;27.38;;;4.72;;
77598;SDS011;66758;52.078;5.070;2023-03-12T14:54:57;21.92;;;4.35;;
77598;SDS011;66758;52.078;5.070;2023-03-12T14:57:25;26.83;;;3.70;;
77598;SDS011;66758;52.078;5.070;2023-03-12T14:59:51;23.10;;;3.57;;
77598;SDS011;66758;52.078;5.070;2023-03-12T15:02:27;22.67;;;3.80;;
77598;SDS011;66758;52.078;5.070;2023-03-12T15:04:55;25.20;;;4.50;;
77598;SDS011;66758;52.078;5.070;2023-03-12T15:07:27;26.17;;;4.20;;
77598;SDS011;66758;52.078;5.070;2023-03-12T15:09:56;16.75;;;3.10;;
77598;SDS011;66758;52.078;5.070;2023-03-12T15:12:23;25.58;;;3.88;;
77598;SDS011;66758;52.078;5.070;2023-03-12T15:14:54;28.70;;;4.00;;
77598;SDS011;66758;52.078;5.070;2023-03-12T15:17:27;23.83;;;3.22;;
77598;SDS011;66758;52.078;5.070;2023-03-12T15:19:55;21.10;;;3.83;;
77598;SDS011;66758;52.078;5.070;2023-03-12T15:22:22;15.38;;;3.22;;
77598;SDS011;66758;52.078;5.070;2023-03-12T15:24:52;17.60;;;3.33;;
77598;SDS011;66758;52.078;5.070;2023-03-12T15:29:49;18.83;;;3.65;;
77598;SDS011;66758;52.078;5.070;2023-03-12T15:32:17;27.48;;;3.72;;
77598;SDS011;66758;52.078;5.070;2023-03-12T15:34:45;25.92;;;4.20;;
77598;SDS011;66758;52.078;5.070;2023-03-12T15:37:27;24.85;;;4.15;;
77598;SDS011;66758;52.078;5.070;2023-03-12T15:40:23;21.60;;;3.53;;
77598;SDS011;66758;52.078;5.070;2023-03-12T15:42:52;17.75;;;3.83;;
77598;SDS011;66758;52.078;5.070;2023-03-12T15:45:24;23.60;;;4.00;;
77598;SDS011;66758;52.078;5.070;2023-03-12T15:47:56;23.85;;;3.63;;
77598;SDS011;66758;52.078;5.070;2023-03-12T15:50:32;20.40;;;3.60;;
77598;SDS011;66758;52.078;5.070;2023-03-12T15:53:05;24.77;;;3.67;;
77598;SDS011;66758;52.078;5.070;2023-03-12T15:55:59;16.35;;;3.20;;
77598;SDS011;66758;52.078;5.070;2023-03-12T15:58:45;24.20;;;3.85;;
77598;SDS011;66758;52.078;5.070;2023-03-12T16:01:17;23.40;;;3.80;;
77598;SDS011;66758;52.078;5.070;2023-03-12T16:03:52;24.98;;;4.47;;
77598;SDS011;66758;52.078;5.070;2023-03-12T16:06:18;20.23;;;3.90;;
77598;SDS011;66758;52.078;5.070;2023-03-12T16:08:48;26.48;;;3.92;;
77598;SDS011;66758;52.078;5.070;2023-03-12T16:11:16;15.05;;;2.92;;
77598;SDS011;66758;52.078;5.070;2023-03-12T16:13:44;24.33;;;4.07;;
77598;SDS011;66758;52.078;5.070;2023-03-12T16:16:15;21.00;;;3.85;;
77598;SDS011;66758;52.078;5.070;2023-03-12T16:18:41;30.73;;;5.05;;
77598;SDS011;66758;52.078;5.070;2023-03-12T16:21:08;24.90;;;4.07;;
77598;SDS011;66758;52.078;5.070;2023-03-12T16:23:34;23.02;;;3.33;;
77598;SDS011;66758;52.078;5.070;2023-03-12T16:26:01;29.08;;;3.97;;
77598;SDS011;66758;52.078;5.070;2023-03-12T16:28:29;20.02;;;3.42;;
77598;SDS011;66758;52.078;5.070;2023-03-12T16:30:55;20.67;;;3.25;;
77598;SDS011;66758;52.078;5.070;2023-03-12T16:33:22;32.27;;;4.13;;
77598;SDS011;66758;52.078;5.070;2023-03-12T16:35:48;25.17;;;3.38;;
77598;SDS011;66758;52.078;5.070;2023-03-12T16:38:14;25.73;;;4.18;;
77598;SDS011;66758;52.078;5.070;2023-03-12T16:40:45;29.70;;;4.78;;